Time;durP1;ratioP1;P1;durP2;ratioP2;P2;SDS_P1;SDS_P2;PMS_P1;PMS_P2;Temp;Humidity;BMP_temperature;BMP_pressure;BME280_temperature;BME280_humidity;BME280_pressure;Samples;Min_cycle;Max_cycle;Signal;HPM_P1;HPM_P2
2022/10/09 00:02:22;;;;;;;7.72;3.63;;;7.30;99.90;;;;;;5032710;28;20054;-48
2022/10/09 00:04:47;;;;;;;8.32;3.30;;;7.30;99.90;;;;;;5031041;28;20496;-50
2022/10/09 00:07:13;;;;;;;9.40;3.20;;;7.30;99.90;;;;;;5032603;28;20539;-47
2022/10/09 00:09:39;;;;;;;10.38;4.03;;;7.30;99.90;;;;;;5032540;28;20034;-48
2022/10/09 00:12:04;;;;;;;8.02;3.42;;;7.30;99.90;;;;;;5032392;28;20025;-51
2022/10/09 00:14:30;;;;;;;9.32;3.33;;;7.30;99.90;;;;;;5032171;28;20033;-47
2022/10/09 00:16:55;;;;;;;7.10;3.67;;;7.20;99.90;;;;;;5032458;28;20025;-48
2022/10/09 00:19:21;;;;;;;9.50;3.45;;;7.10;99.90;;;;;;5032508;28;20032;-49
2022/10/09 00:21:47;;;;;;;8.88;3.47;;;7.00;99.90;;;;;;5032435;28;20022;-47
2022/10/09 00:24:12;;;;;;;10.43;3.58;;;7.00;99.90;;;;;;5032517;28;20030;-48
2022/10/09 00:26:38;;;;;;;7.13;3.55;;;7.20;99.90;;;;;;5032089;28;20014;-49
2022/10/09 00:29:03;;;;;;;7.15;2.97;;;6.80;99.90;;;;;;5032082;28;20037;-51
2022/10/09 00:31:29;;;;;;;5.97;3.35;;;6.60;99.90;;;;;;5032119;28;20492;-47
2022/10/09 00:33:55;;;;;;;8.18;2.97;;;4.90;99.90;;;;;;5031918;28;20496;-54
2022/10/09 00:36:23;;;;;;;5.53;3.15;;;6.70;99.90;;;;;;5031981;28;20036;-50
2022/10/09 00:38:49;;;;;;;8.02;3.53;;;6.60;99.90;;;;;;5032246;28;20021;-51
2022/10/09 00:41:19;;;;;;;7.15;3.22;;;5.00;99.90;;;;;;5031708;28;20469;-51
2022/10/09 00:43:58;;;;;;;10.30;3.85;;;6.50;99.90;;;;;;5031917;28;20071;-49
2022/10/09 00:46:49;;;;;;;5.45;3.17;;;6.50;99.90;;;;;;5031865;28;20045;-48
2022/10/09 00:49:24;;;;;;;8.30;3.20;;;6.70;99.90;;;;;;5031789;28;20029;-47
2022/10/09 00:51:52;;;;;;;10.48;3.17;;;6.40;99.90;;;;;;5031538;28;20025;-49
2022/10/09 00:54:21;;;;;;;6.00;3.03;;;6.40;99.90;;;;;;5031600;28;20053;-51
2022/10/09 00:56:48;;;;;;;5.18;3.05;;;6.30;99.90;;;;;;5031646;28;20567;-47
2022/10/09 00:59:14;;;;;;;7.70;3.15;;;6.30;99.90;;;;;;5031562;28;20031;-46
2022/10/09 01:01:41;;;;;;;5.85;3.28;;;6.30;99.90;;;;;;5031653;28;20061;-52
2022/10/09 01:04:06;;;;;;;8.85;3.25;;;7.00;99.90;;;;;;5031548;28;20049;-48
2022/10/09 01:06:38;;;;;;;10.05;3.97;;;6.20;99.90;;;;;;5031394;28;20477;-51
2022/10/09 01:09:11;;;;;;;7.85;3.10;;;5.20;99.90;;;;;;5030018;28;20037;-48
2022/10/09 01:11:41;;;;;;;9.35;3.15;;;6.20;99.90;;;;;;5030911;28;20026;-47
2022/10/09 01:14:17;;;;;;;10.05;3.55;;;6.20;99.90;;;;;;5031184;28;20033;-47
2022/10/09 01:16:56;;;;;;;10.43;3.25;;;6.20;99.90;;;;;;5031475;28;20096;-46
2022/10/09 01:19:33;;;;;;;7.53;3.22;;;6.10;99.90;;;;;;5031435;28;20034;-47
2022/10/09 01:22:50;;;;;;;6.72;2.92;;;6.70;99.90;;;;;;5030052;28;20045;-48
2022/10/09 01:25:35;;;;;;;8.75;3.38;;;6.10;99.90;;;;;;5019194;28;20032;-49
2022/10/09 01:28:04;;;;;;;8.23;3.75;;;5.00;99.90;;;;;;5030834;28;20447;-49
2022/10/09 01:30:38;;;;;;;7.70;3.05;;;7.70;99.90;;;;;;5031189;28;20086;-47
2022/10/09 01:33:04;;;;;;;8.90;4.13;;;6.10;99.90;;;;;;5029314;28;20033;-49
2022/10/09 01:35:30;;;;;;;6.95;2.65;;;6.00;99.90;;;;;;5031005;28;20156;-48
2022/10/09 01:37:58;;;;;;;8.98;2.90;;;6.00;99.90;;;;;;5030916;28;20052;-47
2022/10/09 01:40:26;;;;;;;9.05;3.72;;;6.00;99.90;;;;;;5030483;28;20488;-46
2022/10/09 01:42:52;;;;;;;11.52;3.42;;;6.10;99.90;;;;;;5030980;28;20041;-46
2022/10/09 01:45:17;;;;;;;9.13;4.05;;;6.10;99.90;;;;;;5029828;28;20040;-48
2022/10/09 01:47:43;;;;;;;8.73;3.17;;;6.10;99.90;;;;;;5030853;28;20033;-47
2022/10/09 01:50:24;;;;;;;12.48;3.85;;;6.00;99.90;;;;;;5030881;28;20022;-47
2022/10/09 01:52:54;;;;;;;9.30;3.28;;;6.10;99.90;;;;;;5030876;28;20028;-46
2022/10/09 01:55:41;;;;;;;8.73;3.83;;;6.00;99.90;;;;;;5031195;28;20116;-46
2022/10/09 01:58:40;;;;;;;5.97;3.05;;;6.00;99.90;;;;;;5031373;28;20082;-47
2022/10/09 02:01:14;;;;;;;10.30;3.40;;;6.00;99.90;;;;;;5030982;28;20396;-46
2022/10/09 02:03:43;;;;;;;6.90;3.03;;;6.00;99.90;;;;;;5032481;28;20099;-50
2022/10/09 02:06:11;;;;;;;;;;;6.00;99.90;;;;;;5035089;28;20032;-46
2022/10/09 02:08:39;;;;;;;11.15;3.58;;;5.90;99.90;;;;;;5034935;28;19920;-50
2022/10/09 02:11:05;;;;;;;9.57;2.95;;;5.30;99.90;;;;;;5034447;28;20022;-47
2022/10/09 02:13:34;;;;;;;7.03;3.13;;;5.80;99.90;;;;;;5034582;28;20140;-47
2022/10/09 02:16:11;;;;;;;10.50;2.80;;;5.80;99.90;;;;;;5034621;28;20033;-49
2022/10/09 02:18:42;;;;;;;9.15;3.08;;;5.70;99.90;;;;;;5021986;28;20021;-48
2022/10/09 02:21:36;;;;;;;8.32;2.95;;;5.80;99.90;;;;;;5034622;28;20033;-48
2022/10/09 02:24:05;;;;;;;7.72;2.65;;;5.80;99.90;;;;;;5014987;28;20030;-49
2022/10/09 02:26:31;;;;;;;7.57;2.97;;;5.70;99.90;;;;;;5034423;28;20030;-46
2022/10/09 02:28:57;;;;;;;9.55;3.42;;;5.70;99.90;;;;;;5034511;28;20033;-50
2022/10/09 02:31:27;;;;;;;6.38;2.95;;;5.70;99.90;;;;;;5034226;28;20060;-48
2022/10/09 02:34:01;;;;;;;7.85;2.80;;;5.80;99.90;;;;;;5034411;28;20021;-49
2022/10/09 02:36:28;;;;;;;7.57;3.00;;;5.70;99.90;;;;;;5034321;28;20049;-48
2022/10/09 02:38:54;;;;;;;7.00;2.97;;;5.70;99.90;;;;;;5034292;28;20024;-46
2022/10/09 02:41:21;;;;;;;7.70;3.20;;;5.80;99.90;;;;;;5034037;28;20023;-48
2022/10/09 02:43:46;;;;;;;9.13;2.63;;;5.80;99.90;;;;;;5034055;28;20551;-49
2022/10/09 02:46:12;;;;;;;8.00;2.90;;;5.80;99.90;;;;;;5034203;28;20038;-47
2022/10/09 02:48:38;;;;;;;7.10;2.38;;;5.70;99.90;;;;;;5033953;28;20033;-46
2022/10/09 02:51:03;;;;;;;8.85;3.10;;;5.90;99.90;;;;;;5034127;28;20025;-47
2022/10/09 02:53:29;;;;;;;8.52;2.85;;;5.90;99.90;;;;;;5033973;28;20048;-49
2022/10/09 02:55:55;;;;;;;7.55;2.65;;;5.90;99.90;;;;;;5033917;28;20079;-49
2022/10/09 02:58:21;;;;;;;11.35;2.78;;;5.90;99.90;;;;;;5033921;28;20392;-49
2022/10/09 03:00:48;;;;;;;9.55;2.88;;;5.90;99.90;;;;;;5033705;28;20104;-48
2022/10/09 03:03:14;;;;;;;9.32;2.40;;;5.90;99.90;;;;;;5033972;28;20100;-53
2022/10/09 03:05:39;;;;;;;6.70;2.70;;;5.80;99.90;;;;;;5033479;28;20136;-47
2022/10/09 03:08:05;;;;;;;4.93;2.40;;;5.90;99.90;;;;;;5033666;28;20041;-49
2022/10/09 03:10:31;;;;;;;15.40;3.00;;;5.80;99.90;;;;;;5033457;28;20116;-50
2022/10/09 03:12:57;;;;;;;5.88;2.50;;;5.90;99.90;;;;;;5033224;28;20101;-47
2022/10/09 03:15:23;;;;;;;5.95;2.90;;;5.80;99.90;;;;;;5033548;28;20021;-47
2022/10/09 03:17:48;;;;;;;9.98;2.63;;;5.80;99.90;;;;;;5033445;28;20104;-47
2022/10/09 03:20:14;;;;;;;4.57;2.08;;;5.70;99.90;;;;;;5033636;28;20057;-50
2022/10/09 03:22:40;;;;;;;6.60;2.47;;;5.70;99.90;;;;;;5033464;28;20033;-50
2022/10/09 03:25:06;;;;;;;7.15;2.58;;;5.70;99.90;;;;;;5033679;28;20049;-52
2022/10/09 03:27:32;;;;;;;9.85;2.53;;;5.80;99.90;;;;;;5033502;28;20115;-46
2022/10/09 03:29:57;;;;;;;8.32;2.55;;;5.90;99.90;;;;;;5033168;28;20429;-52
2022/10/09 03:32:24;;;;;;;5.90;2.20;;;5.90;99.90;;;;;;5033303;28;20484;-48
2022/10/09 03:34:50;;;;;;;8.57;2.40;;;5.90;99.90;;;;;;5032020;28;20557;-46
2022/10/09 03:37:15;;;;;;;8.85;2.40;;;5.90;99.90;;;;;;5033270;28;20029;-49
2022/10/09 03:39:41;;;;;;;6.90;2.42;;;5.80;99.90;;;;;;5033220;28;20510;-46
2022/10/09 03:42:06;;;;;;;7.70;3.17;;;5.70;99.90;;;;;;5032867;28;20508;-48
2022/10/09 03:44:32;;;;;;;8.27;2.50;;;5.80;99.90;;;;;;5033010;28;20037;-48
2022/10/09 03:46:58;;;;;;;6.30;2.30;;;5.80;99.90;;;;;;5033008;28;20025;-48
2022/10/09 03:49:23;;;;;;;6.40;2.05;;;5.80;99.90;;;;;;5032839;28;20036;-47
2022/10/09 03:51:49;;;;;;;8.80;2.50;;;5.70;99.90;;;;;;5032962;28;20092;-48
2022/10/09 03:54:15;;;;;;;6.53;2.50;;;5.90;99.90;;;;;;5033087;28;20037;-50
2022/10/09 03:56:40;;;;;;;5.13;2.00;;;5.90;99.90;;;;;;5032799;28;20040;-47
2022/10/09 03:59:08;;;;;;;5.88;2.50;;;5.90;99.90;;;;;;5032976;28;20070;-47
2022/10/09 04:01:34;;;;;;;5.68;2.40;;;6.00;99.90;;;;;;5032868;28;20033;-47
2022/10/09 04:04:00;;;;;;;6.22;2.53;;;6.00;99.90;;;;;;5032369;28;20072;-49
2022/10/09 04:06:26;;;;;;;5.65;1.90;;;6.00;99.90;;;;;;5032683;28;20033;-49
2022/10/09 04:08:51;;;;;;;6.22;2.50;;;6.10;99.90;;;;;;5032760;28;20064;-49
2022/10/09 04:11:17;;;;;;;7.82;2.50;;;6.00;99.90;;;;;;5032157;28;20028;-50
2022/10/09 04:13:43;;;;;;;9.13;2.97;;;6.00;99.90;;;;;;5032193;28;20068;-48
2022/10/09 04:16:11;;;;;;;8.02;3.13;;;6.00;99.90;;;;;;5032398;28;20032;-47
2022/10/09 04:18:38;;;;;;;5.90;2.40;;;5.90;99.90;;;;;;5032490;28;20037;-49
2022/10/09 04:21:04;;;;;;;8.60;2.50;;;6.00;99.90;;;;;;5032150;28;20029;-47
2022/10/09 04:23:30;;;;;;;8.63;2.75;;;6.00;99.90;;;;;;5032267;28;20036;-51
2022/10/09 04:25:58;;;;;;;5.68;2.40;;;6.00;99.90;;;;;;5031475;28;20064;-50
2022/10/09 04:28:27;;;;;;;7.85;2.83;;;6.10;99.90;;;;;;5032235;28;20084;-47
2022/10/09 04:30:53;;;;;;;5.68;2.45;;;6.10;99.90;;;;;;5032252;28;20087;-49
2022/10/09 04:33:19;;;;;;;5.75;2.42;;;6.30;99.90;;;;;;5031945;28;20038;-47
2022/10/09 04:35:48;;;;;;;9.93;2.80;;;6.40;99.90;;;;;;5032163;28;20018;-47
2022/10/09 04:38:13;;;;;;;6.93;2.33;;;6.80;99.90;;;;;;5032100;28;20025;-47
2022/10/09 04:40:39;;;;;;;6.82;2.25;;;6.70;99.90;;;;;;5031684;28;20021;-47
2022/10/09 04:43:05;;;;;;;7.15;2.17;;;6.80;99.90;;;;;;5032051;28;20064;-47
2022/10/09 04:45:31;;;;;;;6.80;2.40;;;6.80;99.90;;;;;;5031762;28;20071;-53
2022/10/09 04:47:57;;;;;;;9.07;2.85;;;6.90;99.90;;;;;;5031754;28;20037;-47
2022/10/09 04:50:23;;;;;;;5.18;2.00;;;6.90;99.90;;;;;;5031661;28;20026;-47
2022/10/09 04:52:49;;;;;;;10.23;2.30;;;6.90;99.90;;;;;;5031984;28;20511;-55
2022/10/09 04:55:14;;;;;;;5.38;2.15;;;7.00;99.90;;;;;;5031746;28;20065;-52
2022/10/09 04:57:40;;;;;;;6.25;2.00;;;7.00;99.90;;;;;;5031568;28;20045;-50
2022/10/09 05:00:06;;;;;;;5.15;2.25;;;7.00;99.90;;;;;;5031674;28;20059;-48
2022/10/09 05:02:32;;;;;;;3.70;1.75;;;7.00;99.90;;;;;;5031417;28;20018;-51
2022/10/09 05:04:57;;;;;;;4.65;1.70;;;7.10;99.90;;;;;;5031447;28;20052;-52
2022/10/09 05:07:23;;;;;;;9.68;2.13;;;7.10;99.90;;;;;;5031295;28;20095;-47
2022/10/09 05:09:49;;;;;;;8.45;2.10;;;7.30;99.90;;;;;;5031177;28;20034;-49
2022/10/09 05:12:15;;;;;;;6.70;2.13;;;7.40;99.90;;;;;;5031242;28;20025;-51
2022/10/09 05:14:40;;;;;;;4.95;1.80;;;7.40;99.90;;;;;;5031050;28;20108;-47
2022/10/09 05:17:06;;;;;;;4.85;1.45;;;7.50;99.90;;;;;;5031348;28;20454;-49
2022/10/09 05:19:32;;;;;;;5.60;1.63;;;7.50;99.90;;;;;;5031216;28;20029;-49
2022/10/09 05:22:00;;;;;;;5.78;1.67;;;7.60;99.90;;;;;;5031190;28;20032;-49
2022/10/09 05:24:27;;;;;;;3.83;1.65;;;7.60;99.90;;;;;;5031183;28;20079;-49
2022/10/09 05:26:53;;;;;;;9.10;1.75;;;7.60;99.90;;;;;;5031274;28;20009;-52
2022/10/09 05:29:19;;;;;;;8.00;1.55;;;7.70;99.90;;;;;;5031129;28;20044;-47
2022/10/09 05:31:44;;;;;;;7.78;1.77;;;7.70;99.90;;;;;;5031112;28;20434;-49
2022/10/09 05:34:11;;;;;;;4.38;2.00;;;7.40;99.90;;;;;;5031403;28;20033;-48
2022/10/09 05:36:37;;;;;;;2.67;1.30;;;7.60;99.90;;;;;;5031081;28;20638;-47
2022/10/09 05:39:02;;;;;;;5.82;1.40;;;7.60;99.90;;;;;;5030278;28;20037;-47
2022/10/09 05:41:28;;;;;;;4.68;1.35;;;7.60;99.90;;;;;;5030751;28;20032;-48
2022/10/09 05:43:58;;;;;;;5.95;1.75;;;7.50;99.90;;;;;;5030970;28;20025;-47
2022/10/09 05:46:24;;;;;;;6.28;1.60;;;7.50;99.90;;;;;;5031087;28;20029;-51
2022/10/09 05:48:56;;;;;;;7.18;2.00;;;7.40;99.90;;;;;;5030877;28;20052;-46
2022/10/09 05:51:22;;;;;;;4.78;1.65;;;7.30;99.90;;;;;;5031089;28;20018;-46
2022/10/09 05:53:48;;;;;;;5.45;1.83;;;7.30;99.90;;;;;;5030771;28;20500;-49
2022/10/09 05:56:28;;;;;;;5.72;1.48;;;7.30;99.90;;;;;;5030983;28;20033;-46
2022/10/09 05:59:01;;;;;;;5.55;1.40;;;7.30;99.90;;;;;;5030801;28;20156;-47
2022/10/09 06:01:36;;;;;;;5.20;1.90;;;7.40;99.90;;;;;;5031015;28;20033;-46
2022/10/09 06:04:02;;;;;;;4.90;1.25;;;7.40;99.90;;;;;;5030702;28;20120;-50
2022/10/09 06:06:31;;;;;;;4.55;1.25;;;7.60;99.90;;;;;;5030785;28;20029;-50
2022/10/09 06:08:57;;;;;;;4.93;1.35;;;7.40;99.90;;;;;;5030382;28;20029;-47
2022/10/09 06:11:31;;;;;;;5.05;1.00;;;7.60;99.90;;;;;;5030553;28;20229;-50
2022/10/09 06:14:01;;;;;;;4.50;1.40;;;8.00;99.90;;;;;;5030736;28;20030;-47
2022/10/09 06:16:29;;;;;;;4.30;1.05;;;7.70;99.90;;;;;;5031021;28;20021;-47
2022/10/09 06:18:55;;;;;;;6.10;1.58;;;7.80;99.90;;;;;;5030771;28;20506;-45
2022/10/09 06:21:22;;;;;;;13.35;1.90;;;8.00;99.90;;;;;;5030621;28;20034;-49
2022/10/09 06:23:49;;;;;;;10.23;1.70;;;8.10;99.90;;;;;;5030746;28;20493;-49
2022/10/09 06:26:15;;;;;;;3.75;1.50;;;8.30;99.90;;;;;;5030812;28;20034;-46
2022/10/09 06:28:41;;;;;;;6.47;1.30;;;8.30;99.90;;;;;;5030807;28;20049;-51
2022/10/09 06:31:10;;;;;;;3.50;1.20;;;8.30;99.90;;;;;;5030503;28;20103;-47
2022/10/09 06:33:38;;;;;;;6.25;1.40;;;8.10;99.90;;;;;;5030547;28;20108;-49
2022/10/09 06:36:12;;;;;;;8.90;1.80;;;8.10;99.90;;;;;;5028914;28;20549;-46
2022/10/09 06:38:38;;;;;;;9.63;1.25;;;8.10;99.90;;;;;;5023412;28;20033;-50
2022/10/09 06:41:07;;;;;;;6.65;1.55;;;8.00;99.90;;;;;;5030492;28;20030;-45
2022/10/09 06:43:33;;;;;;;5.88;1.38;;;8.00;99.90;;;;;;5030463;28;20504;-46
2022/10/09 06:46:00;;;;;;;4.80;1.00;;;8.10;99.90;;;;;;5030680;28;20047;-45
2022/10/09 06:48:31;;;;;;;3.30;1.02;;;8.10;99.90;;;;;;5030315;28;20090;-48
2022/10/09 06:51:09;;;;;;;6.97;1.17;;;8.10;99.90;;;;;;5033907;28;20013;-46
2022/10/09 06:53:43;;;;;;;3.95;1.08;;;8.20;99.90;;;;;;5034142;28;20032;-46
2022/10/09 06:56:09;;;;;;;5.50;1.20;;;8.30;99.90;;;;;;5033736;28;20052;-51
2022/10/09 06:58:36;;;;;;;8.88;1.40;;;8.40;99.90;;;;;;5033948;28;20280;-46
2022/10/09 07:01:06;;;;;;;6.30;1.48;;;8.40;99.90;;;;;;5033821;28;20021;-46
2022/10/09 07:03:32;;;;;;;8.32;1.58;;;8.50;99.90;;;;;;5033783;28;20036;-46
2022/10/09 07:06:09;;;;;;;5.40;1.10;;;8.60;99.90;;;;;;5033182;28;20049;-46
2022/10/09 07:08:37;;;;;;;8.45;1.23;;;8.70;99.90;;;;;;5033198;28;20485;-47
2022/10/09 07:11:21;;;;;;;5.57;1.20;;;8.70;99.90;;;;;;5033569;28;20018;-47
2022/10/09 07:13:49;;;;;;;3.90;1.30;;;8.80;99.90;;;;;;5033573;28;20053;-53
2022/10/09 07:16:23;;;;;;;3.22;1.27;;;8.90;99.90;;;;;;5033440;28;20031;-46
2022/10/09 07:18:49;;;;;;;2.88;1.20;;;9.00;99.90;;;;;;5033442;28;20120;-46
2022/10/09 07:21:15;;;;;;;5.35;1.40;;;9.20;99.90;;;;;;5033257;28;20056;-50
2022/10/09 07:23:41;;;;;;;8.27;2.00;;;9.30;99.90;;;;;;5033149;28;20084;-49
2022/10/09 07:26:16;;;;;;;7.68;1.20;;;9.30;99.90;;;;;;5032815;28;20026;-49
2022/10/09 07:28:42;;;;;;;6.25;1.60;;;9.60;99.90;;;;;;5032877;28;20049;-46
2022/10/09 07:31:08;;;;;;;4.05;1.30;;;9.70;99.90;;;;;;5033113;28;20026;-50
2022/10/09 07:33:34;;;;;;;6.70;1.13;;;9.80;99.90;;;;;;5031977;28;20029;-47
2022/10/09 07:36:01;;;;;;;6.10;1.45;;;10.00;99.90;;;;;;5032917;28;20388;-46
2022/10/09 07:38:27;;;;;;;4.93;1.13;;;10.10;99.90;;;;;;5031730;28;20029;-47
2022/10/09 07:40:53;;;;;;;6.28;2.55;;;10.20;99.90;;;;;;5032550;28;20017;-47
2022/10/09 07:43:20;;;;;;;5.53;1.77;;;10.40;99.90;;;;;;5032861;28;20027;-48
2022/10/09 07:45:46;;;;;;;6.68;1.45;;;10.50;99.90;;;;;;5032963;28;20492;-46
2022/10/09 07:48:12;;;;;;;5.93;1.40;;;10.60;99.90;;;;;;5032622;28;20048;-47
2022/10/09 07:50:39;;;;;;;6.22;1.30;;;10.80;99.90;;;;;;5031244;28;20034;-47
2022/10/09 07:53:04;;;;;;;6.85;1.25;;;11.00;99.90;;;;;;5032387;28;20033;-52
2022/10/09 07:55:30;;;;;;;5.82;1.13;;;11.30;99.90;;;;;;5032455;28;20094;-47
2022/10/09 07:57:55;;;;;;;7.07;1.27;;;11.50;99.90;;;;;;5032849;28;20389;-47
2022/10/09 08:00:21;;;;;;;5.00;1.40;;;11.70;99.90;;;;;;5032258;28;20041;-49
2022/10/09 08:02:47;;;;;;;8.80;1.42;;;11.90;99.90;;;;;;5032300;28;20032;-50
2022/10/09 08:05:13;;;;;;;5.85;1.15;;;12.10;99.90;;;;;;5031220;28;20408;-49
2022/10/09 08:07:38;;;;;;;6.45;1.40;;;12.40;99.90;;;;;;5032407;28;20029;-47
2022/10/09 08:10:04;;;;;;;6.10;1.08;;;13.60;99.90;;;;;;5032061;28;20440;-53
2022/10/09 08:12:30;;;;;;;3.78;0.80;;;13.70;99.90;;;;;;5032719;28;20032;-48
2022/10/09 08:14:56;;;;;;;3.15;1.08;;;14.90;99.90;;;;;;5032229;28;20038;-48
2022/10/09 08:17:21;;;;;;;7.75;1.30;;;15.90;99.90;;;;;;5032411;28;20036;-48
2022/10/09 08:19:47;;;;;;;5.22;1.05;;;16.90;99.90;;;;;;5032108;28;20072;-49
2022/10/09 08:22:12;;;;;;;5.15;1.00;;;18.00;99.90;;;;;;5032453;28;20071;-50
2022/10/09 08:24:38;;;;;;;4.78;1.15;;;18.70;99.90;;;;;;5031004;28;20029;-48
2022/10/09 08:27:05;;;;;;;4.30;0.90;;;19.30;99.90;;;;;;5032025;28;20145;-51
2022/10/09 08:29:32;;;;;;;5.65;1.00;;;20.40;99.90;;;;;;5031802;28;20060;-52
2022/10/09 08:31:57;;;;;;;4.43;1.00;;;20.80;99.90;;;;;;5032337;28;20037;-47
2022/10/09 08:34:23;;;;;;;3.88;1.02;;;20.80;99.90;;;;;;5031938;28;20712;-50
2022/10/09 08:36:49;;;;;;;6.80;1.10;;;21.20;99.90;;;;;;5031864;28;20389;-48
2022/10/09 08:39:15;;;;;;;3.83;0.90;;;21.10;98.80;;;;;;5031197;28;20044;-52
2022/10/09 08:41:46;;;;;;;3.00;1.00;;;21.30;98.10;;;;;;5031605;28;20477;-48
2022/10/09 08:44:28;;;;;;;4.43;1.05;;;22.20;97.30;;;;;;5031579;28;20229;-49
2022/10/09 08:47:02;;;;;;;3.22;1.00;;;22.50;95.70;;;;;;5031587;28;20038;-49
2022/10/09 08:49:46;;;;;;;4.47;1.20;;;22.90;94.70;;;;;;5030889;28;20033;-48
2022/10/09 08:52:33;;;;;;;6.90;1.20;;;23.10;93.80;;;;;;5029733;28;20048;-49
2022/10/09 08:55:07;;;;;;;4.15;1.20;;;23.10;93.90;;;;;;5032628;28;20022;-47
2022/10/09 08:57:33;;;;;;;5.20;1.30;;;23.60;92.20;;;;;;5034175;28;20511;-47
2022/10/09 08:59:59;;;;;;;6.72;1.00;;;23.80;90.70;;;;;;5033794;28;20025;-49
2022/10/09 09:02:36;;;;;;;6.00;1.00;;;24.00;90.60;;;;;;5037300;28;20030;-48
2022/10/09 09:05:23;;;;;;;3.70;1.00;;;23.90;87.30;;;;;;5031275;28;20053;-55
2022/10/09 09:08:08;;;;;;;5.78;1.33;;;23.90;87.40;;;;;;5032942;28;20511;-53
2022/10/09 09:10:42;;;;;;;5.43;1.10;;;24.50;83.10;;;;;;5040884;28;20029;-48
2022/10/09 09:13:22;;;;;;;3.65;1.00;;;24.70;82.50;;;;;;5030303;28;20029;-47
2022/10/09 09:16:00;;;;;;;3.67;0.90;;;24.60;82.10;;;;;;5031676;28;20021;-47
2022/10/09 09:18:38;;;;;;;4.90;1.17;;;25.10;79.60;;;;;;5030939;28;20025;-48
2022/10/09 09:21:09;;;;;;;4.43;1.13;;;25.80;79.90;;;;;;5012154;28;20026;-49
2022/10/09 09:23:43;;;;;;;5.45;1.13;;;26.00;77.10;;;;;;5028305;28;20026;-51
2022/10/09 09:26:16;;;;;;;6.38;1.27;;;25.80;75.20;;;;;;5030252;28;20071;-49
2022/10/09 09:28:43;;;;;;;3.75;1.20;;;25.10;76.70;;;;;;5030436;28;20029;-49
2022/10/09 09:31:16;;;;;;;5.28;1.08;;;25.40;75.40;;;;;;5030664;28;20036;-50
2022/10/09 09:33:51;;;;;;;5.72;1.00;;;25.10;79.10;;;;;;5031767;28;20025;-48
2022/10/09 09:36:22;;;;;;;4.78;1.38;;;24.80;77.40;;;;;;5035685;28;20107;-54
2022/10/09 09:38:49;;;;;;;5.50;1.20;;;23.20;79.10;;;;;;5035525;28;20052;-47
2022/10/09 09:41:15;;;;;;;6.15;1.15;;;22.90;81.90;;;;;;5048048;28;20013;-50
2022/10/09 09:43:41;;;;;;;3.67;0.77;;;23.30;79.60;;;;;;5047916;28;20025;-48
2022/10/09 09:46:24;;;;;;;4.20;1.13;;;23.40;80.50;;;;;;5038795;28;20032;-52
2022/10/09 09:48:50;;;;;;;3.75;1.23;;;24.50;76.50;;;;;;5032747;28;20049;-56
2022/10/09 09:51:21;;;;;;;4.97;1.17;;;25.00;73.40;;;;;;5034542;28;20021;-50
2022/10/09 09:53:52;;;;;;;4.72;1.00;;;26.20;71.80;;;;;;5034292;28;20108;-51
2022/10/09 09:56:18;;;;;;;4.90;1.00;;;26.30;70.40;;;;;;5023279;28;20079;-48
2022/10/09 09:58:45;;;;;;;6.00;1.10;;;26.50;67.90;;;;;;5044098;28;20419;-51
2022/10/09 10:01:24;;;;;;;4.43;1.05;;;26.70;67.80;;;;;;5036993;28;20025;-47
2022/10/09 10:03:53;;;;;;;2.70;0.70;;;26.50;68.00;;;;;;5029396;28;20033;-49
2022/10/09 10:06:40;;;;;;;8.00;1.30;;;26.80;67.40;;;;;;5031218;28;20068;-48
2022/10/09 10:09:18;;;;;;;4.50;0.85;;;27.10;64.50;;;;;;5031381;28;20510;-49
2022/10/09 10:12:04;;;;;;;4.90;0.93;;;27.00;64.40;;;;;;5024000;28;20033;-51
2022/10/09 10:14:31;;;;;;;4.38;0.93;;;27.50;65.40;;;;;;5030776;28;20069;-48
2022/10/09 10:16:59;;;;;;;4.38;1.15;;;27.40;65.50;;;;;;5028818;28;20029;-50
2022/10/09 10:19:34;;;;;;;5.05;0.85;;;27.20;62.00;;;;;;5030498;28;20051;-47
2022/10/09 10:22:03;;;;;;;3.35;0.95;;;27.10;63.50;;;;;;5030526;28;20060;-47
2022/10/09 10:24:40;;;;;;;3.63;0.90;;;26.50;63.10;;;;;;5030928;28;20021;-50
2022/10/09 10:27:24;;;;;;;5.22;1.17;;;27.10;63.00;;;;;;5032663;28;20045;-50
2022/10/09 10:29:56;;;;;;;6.30;0.90;;;27.50;63.60;;;;;;5033686;28;20428;-48
2022/10/09 10:32:33;;;;;;;8.45;1.38;;;27.30;61.50;;;;;;5033038;28;20033;-51
2022/10/09 10:35:13;;;;;;;8.32;1.20;;;26.80;62.10;;;;;;5020559;28;20030;-51
2022/10/09 10:37:58;;;;;;;2.85;1.00;;;26.60;62.80;;;;;;5029564;28;20393;-50
2022/10/09 10:40:29;;;;;;;5.60;1.02;;;26.40;63.30;;;;;;5037434;28;20030;-50
2022/10/09 10:43:00;;;;;;;3.55;1.00;;;26.30;62.70;;;;;;5025078;28;20020;-47
2022/10/09 10:45:53;;;;;;;3.95;1.25;;;25.60;64.30;;;;;;5033645;28;20048;-47
2022/10/09 10:48:30;;;;;;;2.70;0.75;;;24.60;66.10;;;;;;5033655;28;20044;-48
2022/10/09 10:51:26;;;;;;;7.28;1.00;;;24.80;67.60;;;;;;5026267;28;20049;-49
2022/10/09 10:54:12;;;;;;;4.80;1.40;;;24.60;66.30;;;;;;5040589;28;20029;-46
2022/10/09 10:56:49;;;;;;;3.85;1.10;;;24.60;65.80;;;;;;5033572;28;20025;-56
2022/10/09 10:59:54;;;;;;;4.68;1.00;;;24.20;66.80;;;;;;5033603;28;20091;-47
2022/10/09 11:02:57;;;;;;;4.30;0.70;;;24.50;66.70;;;;;;5033216;28;20036;-53
2022/10/09 11:05:25;;;;;;;5.72;1.58;;;24.50;67.60;;;;;;5037727;28;20148;-50
2022/10/09 11:08:23;;;;;;;2.73;0.83;;;24.30;65.90;;;;;;5031144;28;20049;-52
2022/10/09 11:10:52;;;;;;;3.00;0.75;;;24.10;65.90;;;;;;5014459;28;20042;-53
2022/10/09 11:13:26;;;;;;;5.18;1.02;;;23.60;68.20;;;;;;5024916;28;20548;-47
2022/10/09 11:16:15;;;;;;;5.63;1.00;;;23.90;69.70;;;;;;5038241;28;20479;-48
2022/10/09 11:19:26;;;;;;;5.45;1.02;;;23.40;67.30;;;;;;5031707;28;20032;-49
2022/10/09 11:22:03;;;;;;;4.00;1.02;;;23.20;69.60;;;;;;5026346;28;20421;-48
2022/10/09 11:24:49;;;;;;;8.48;1.20;;;22.60;68.70;;;;;;5033151;28;20101;-49
2022/10/09 11:27:20;;;;;;;4.35;1.15;;;22.40;70.50;;;;;;5030337;28;20392;-47
2022/10/09 11:30:00;;;;;;;3.83;1.08;;;22.70;70.40;;;;;;5032414;28;20112;-49
2022/10/09 11:32:38;;;;;;;4.63;0.90;;;22.80;71.40;;;;;;5032512;28;20069;-48
2022/10/09 11:35:04;;;;;;;7.82;1.40;;;22.70;71.70;;;;;;5031686;28;20048;-49
2022/10/09 11:37:35;;;;;;;7.10;1.00;;;22.50;70.50;;;;;;5031449;28;20462;-49
2022/10/09 11:40:26;;;;;;;6.95;0.82;;;22.30;68.60;;;;;;5031675;28;20104;-51
2022/10/09 11:43:18;;;;;;;6.13;0.80;;;22.20;70.80;;;;;;5027706;28;20102;-48
2022/10/09 11:45:50;;;;;;;3.28;0.73;;;22.60;70.50;;;;;;5028205;28;20465;-53
2022/10/09 11:48:29;;;;;;;5.82;0.88;;;22.50;70.00;;;;;;5028449;28;20033;-50
2022/10/09 11:51:04;;;;;;;5.10;0.90;;;22.60;71.60;;;;;;5031995;28;20025;-50
2022/10/09 11:53:33;;;;;;;3.10;0.90;;;23.00;71.00;;;;;;5030509;28;20022;-48
2022/10/09 11:56:07;;;;;;;5.50;1.08;;;23.50;70.50;;;;;;5032717;28;20040;-52
2022/10/09 11:58:34;;;;;;;4.32;1.15;;;23.90;68.60;;;;;;5027054;28;20040;-51
2022/10/09 12:01:23;;;;;;;5.25;1.02;;;24.40;67.30;;;;;;5031815;28;20025;-50
2022/10/09 12:03:59;;;;;;;3.63;0.63;;;24.70;68.30;;;;;;5024475;28;20037;-48
2022/10/09 12:06:25;;;;;;;4.18;1.20;;;25.00;64.70;;;;;;5016552;28;20067;-52
2022/10/09 12:09:06;;;;;;;3.60;0.98;;;25.40;67.20;;;;;;5030006;28;20121;-51
2022/10/09 12:11:33;;;;;;;5.32;1.13;;;25.50;62.50;;;;;;5029974;28;20044;-50
2022/10/09 12:14:07;;;;;;;6.40;1.27;;;25.70;63.10;;;;;;5030426;28;20071;-54
2022/10/09 12:16:39;;;;;;;3.78;0.80;;;25.70;62.50;;;;;;5030632;28;20400;-52
2022/10/09 12:19:17;;;;;;;4.65;1.00;;;25.50;62.80;;;;;;5030370;28;20030;-48
2022/10/09 12:21:56;;;;;;;4.57;0.97;;;24.70;64.60;;;;;;5029673;28;20074;-53
2022/10/09 12:24:25;;;;;;;3.75;0.98;;;24.30;67.00;;;;;;5029558;28;20396;-50
2022/10/09 12:26:54;;;;;;;5.38;1.00;;;23.50;67.10;;;;;;5030113;28;20018;-49
2022/10/09 12:29:45;;;;;;;5.60;1.00;;;23.10;67.40;;;;;;5029798;28;20049;-51
2022/10/09 12:32:21;;;;;;;5.35;0.80;;;22.30;69.40;;;;;;5029513;28;20423;-50
2022/10/09 12:34:48;;;;;;;3.10;0.80;;;21.40;72.20;;;;;;5029940;28;20025;-52
2022/10/09 12:37:19;;;;;;;7.00;0.85;;;21.00;71.60;;;;;;5031647;28;20505;-54
2022/10/09 12:39:46;;;;;;;2.67;0.90;;;20.70;72.80;;;;;;5031495;28;20116;-51
2022/10/09 12:42:23;;;;;;;4.10;1.17;;;20.70;75.80;;;;;;5031928;28;20109;-55
2022/10/09 12:44:52;;;;;;;5.28;1.73;;;20.60;75.00;;;;;;5031906;28;20017;-52
2022/10/09 12:47:25;;;;;;;;;;;20.60;75.10;;;;;;5031571;28;20071;-47
2022/10/09 12:49:59;;;;;;;3.13;0.98;;;20.50;73.70;;;;;;5032178;28;19913;-48
2022/10/09 12:52:25;;;;;;;2.83;0.70;;;20.30;73.70;;;;;;5032089;28;20104;-51
2022/10/09 12:54:51;;;;;;;4.63;0.88;;;20.30;75.00;;;;;;5031900;28;20105;-50
2022/10/09 12:57:17;;;;;;;4.47;1.20;;;20.10;73.30;;;;;;5031577;28;20491;-48
2022/10/09 12:59:45;;;;;;;3.03;0.65;;;20.00;75.40;;;;;;5030321;28;20489;-47
2022/10/09 13:02:16;;;;;;;3.28;0.88;;;20.20;77.50;;;;;;5030328;28;20171;-47
2022/10/09 13:04:53;;;;;;;4.68;1.00;;;20.40;79.80;;;;;;5031157;28;20499;-47
2022/10/09 13:07:21;;;;;;;5.32;1.10;;;20.00;76.20;;;;;;5031262;28;20037;-48
2022/10/09 13:09:47;;;;;;;4.30;0.90;;;20.30;74.80;;;;;;5031297;28;20033;-53
2022/10/09 13:12:22;;;;;;;4.40;0.98;;;20.30;75.20;;;;;;5031466;28;20396;-49